AirNav   Everest Fuels
 
 873 users online  

1VA4 Evergreen Heliport
Marshall, Virginia, USA

GOING TO MARSHALL?


FAA INFORMATION EFFECTIVE 18 JUNE 2020

Location

FAA Identifier: 1VA4
Lat/Long: 38-56-13.3980N 077-49-08.9800W
38-56.223300N 077-49.149667W
38.9370550,-77.8191611
(estimated)
Elevation: 525 ft. / 160 m (estimated)
Variation: 09W (1985)
From city: 4 miles N of MARSHALL, VA
Time zone: UTC -4 (UTC -5 during Standard Time)
Zip code: 20115

Heliport Operations

Heliport use: Private use. Permission required prior to landing
Activation date: 06/1991
Control tower: no
ARTCC: WASHINGTON CENTER
FSS: LEESBURG FLIGHT SERVICE STATION
Attendance: UNATNDD
Segmented circle: no

Heliport Communications

WX AWOS-3 at JYO (15 nm NE): 125.225 (703-777-3781)
WX ASOS at IAD (17 nm E): PHONE 703-661-2990
WX AWOS-3PT at HEF (19 nm SE): PHONE 703-361-6160
WX AWOS-3 at OKV (20 nm NW): 124.85 (540-662-6970)

Nearby radio navigation aids

VOR radial/distance  VOR name  Freq  Var
AMLr279/16.5ARMEL VOR/DME113.5008W
CSNr013/17.9CASANOVA VORTAC116.3006W
LDNr081/18.7LINDEN VORTAC114.3006W
MRBr184/26.9MARTINSBURG VORTAC112.1007W
FDKr224/(35.2)FREDERICK VOR109.0008W
DCAr286/36.8WASHINGTON VOR/DME111.0009W

 
NDB name  Hdg/Dist  Freq  Var  ID
NAILR018/29.235110WMSQ -- ... --.-
GEORGETOWN280/32.432309WGTN --. - -.
CAVERNS074/33.724509WLUA .-.. ..- .-
DAVEE305/37.022309WDAA -.. .- .-
OXONN297/38.433211WDCA -.. -.-. .-

Heliport Services

Runway Information

Helipad H1

Dimensions: 42 x 42 ft. / 13 x 13 m
Surface: asphalt
Traffic pattern: leftleft

Heliport Ownership and Management from official FAA records

Ownership: Privately-owned
Owner: SHANE A. CHALKE
PO BOX 188
MIDDLEBURG, VA 22117
Phone 703-378-1500
Manager: SHANE A. CHALKE
PO BOX 188
MIDDLEBURG, VA 22117
Phone 703-378-1500

Heliport Operational Statistics

Aircraft based on the field: 1
Helicopters: 1
    

Additional Remarks

A52-H1 35 FT PLINE 400 FT S; 35 FT PLINE 1200 FT W; 29 FT PLINE 200 FT N OF PAD.
FOR CD CTC POTOMAC APCH AT 866-709-4993.

Instrument Procedures

There are no published instrument procedures at 1VA4.

Some nearby airports with instrument procedures:

2VG2 - Upperville Airport (3 nm NW)
9VA5 - Bluegrass Heliport (8 nm NW)
KJYO - Leesburg Executive Airport (15 nm NE)
KIAD - Washington Dulles International Airport (17 nm E)
KHEF - Manassas Regional Airport/Harry P. Davis Field (19 nm SE)
KOKV - Winchester Regional Airport (20 nm NW)
 
Loc | Ops | Rwys | IFR | FBO | Links
Com | Nav | Svcs | Stats | Notes
Area around 1VA4 (Evergreen Heliport)
 
Road maps at: MapQuest Bing Google
 
Aerial photo
No photo
 
Sectional chart

 
Airport distance calculator
Flying to Evergreen Heliport? Find the distance to fly.

From to 1VA4

Sunrise and sunset
Times for 05-Jul-2020
 Local
(UTC-4)
 Zulu
(UTC)
Morning civil twilight05:2109:21
Sunrise05:5309:53
Sunset20:3900:39
Evening civil twilight21:1101:11

Current date and time
Zulu (UTC)  05-Jul-2020 14:56:28
Local (UTC-4)  05-Jul-2020 10:56:28
 
METAR
KJYO 
14nm NE 
051435Z AUTO 23004KT 10SM CLR 28/23 A3002 RMK AO2
KIAD 
17nm E 
051352Z 22004KT 6SM HZ OVC010 26/22 A3000 RMK AO2 SLP155 T02610222
KHEF 
19nm SE 
051356Z 23004KT 10SM OVC016 28/23 A3000 RMK AO2 SLP163 T02780233
KOKV 
19nm NW 
051435Z AUTO 00000KT 10SM SCT070 28/20 A3000 RMK AO2
KFRR 
20nm W 
051435Z AUTO 00000KT CLR 28/22 A3001 RMK AO1
KHWY 
22nm S 
051435Z AUTO 22004KT 10SM BKN017 30/23 A3001 RMK AO2 LTG DSNT S T02950230
TAF
KIAD 
17nm E 
051421Z 0514/0618 17004KT 5SM BR BKN015 OVC250 FM051500 20004KT P6SM SCT060 FM052100 17005KT P6SM SCT060 FM060400 VRB03KT P6SM FEW250 FM061500 20004KT P6SM SCT070
NOTAMs
Click for the latest NOTAMs
NOTAMs are issued by the DoD/FAA and will open in a separate window not controlled by AirNav.

 

 
 

Would you like to see your business listed on this page?

 If your business provides an interesting product or service to pilots, flight crews, aircraft, or users of the Evergreen Heliport, you should consider listing it here.  To start the listing process, click on the button below
 
Add a business
 

Other Pages about Evergreen Heliport

Update a link
 
Copyright © AirNav, LLC. All rights reserved. Privacy Policy  Contact